sensor_id;sensor_type;location;lat;lon;timestamp;P1;durP1;ratioP1;P2;durP2;ratioP2
12844;SDS011;6489;48.508;9.206;2023-02-28T00:01:38;20.60;;;3.93;;
12844;SDS011;6489;48.508;9.206;2023-02-28T00:05:00;14.57;;;2.90;;
12844;SDS011;6489;48.508;9.206;2023-02-28T00:08:23;21.70;;;3.47;;
12844;SDS011;6489;48.508;9.206;2023-02-28T00:11:45;15.07;;;3.07;;
12844;SDS011;6489;48.508;9.206;2023-02-28T00:15:08;13.70;;;2.87;;
12844;SDS011;6489;48.508;9.206;2023-02-28T00:18:33;12.73;;;2.80;;
12844;SDS011;6489;48.508;9.206;2023-02-28T00:21:55;31.70;;;4.73;;
12844;SDS011;6489;48.508;9.206;2023-02-28T00:25:19;10.10;;;2.37;;
12844;SDS011;6489;48.508;9.206;2023-02-28T00:28:42;13.07;;;2.70;;
12844;SDS011;6489;48.508;9.206;2023-02-28T00:32:04;46.13;;;6.30;;
12844;SDS011;6489;48.508;9.206;2023-02-28T00:35:28;16.57;;;3.07;;
12844;SDS011;6489;48.508;9.206;2023-02-28T00:38:50;26.43;;;4.53;;
12844;SDS011;6489;48.508;9.206;2023-02-28T00:42:13;19.07;;;3.50;;
12844;SDS011;6489;48.508;9.206;2023-02-28T00:45:35;33.17;;;5.00;;
12844;SDS011;6489;48.508;9.206;2023-02-28T00:48:57;30.87;;;4.67;;
12844;SDS011;6489;48.508;9.206;2023-02-28T00:52:21;25.63;;;4.13;;
12844;SDS011;6489;48.508;9.206;2023-02-28T00:55:43;34.13;;;5.03;;
12844;SDS011;6489;48.508;9.206;2023-02-28T00:59:06;15.30;;;3.07;;
12844;SDS011;6489;48.508;9.206;2023-02-28T01:02:28;26.87;;;4.20;;
12844;SDS011;6489;48.508;9.206;2023-02-28T01:05:51;7.67;;;2.40;;
12844;SDS011;6489;48.508;9.206;2023-02-28T01:09:15;18.93;;;3.20;;
12844;SDS011;6489;48.508;9.206;2023-02-28T01:12:37;30.80;;;4.60;;
12844;SDS011;6489;48.508;9.206;2023-02-28T01:16:00;20.60;;;3.60;;
12844;SDS011;6489;48.508;9.206;2023-02-28T01:19:22;13.07;;;2.90;;
12844;SDS011;6489;48.508;9.206;2023-02-28T01:22:45;15.70;;;3.20;;
12844;SDS011;6489;48.508;9.206;2023-02-28T01:26:10;25.73;;;4.17;;
12844;SDS011;6489;48.508;9.206;2023-02-28T01:29:32;12.40;;;2.97;;
12844;SDS011;6489;48.508;9.206;2023-02-28T01:32:55;11.67;;;2.63;;
12844;SDS011;6489;48.508;9.206;2023-02-28T01:36:18;12.33;;;3.00;;
12844;SDS011;6489;48.508;9.206;2023-02-28T01:39:41;15.77;;;3.00;;
12844;SDS011;6489;48.508;9.206;2023-02-28T01:43:07;6.47;;;2.10;;
12844;SDS011;6489;48.508;9.206;2023-02-28T01:46:38;14.67;;;3.03;;
12844;SDS011;6489;48.508;9.206;2023-02-28T01:50:02;13.00;;;3.13;;
12844;SDS011;6489;48.508;9.206;2023-02-28T01:53:29;15.40;;;3.13;;
12844;SDS011;6489;48.508;9.206;2023-02-28T01:56:55;12.30;;;2.53;;
12844;SDS011;6489;48.508;9.206;2023-02-28T02:00:21;36.57;;;5.07;;
12844;SDS011;6489;48.508;9.206;2023-02-28T02:03:46;22.00;;;3.80;;
12844;SDS011;6489;48.508;9.206;2023-02-28T02:07:15;25.33;;;4.13;;
12844;SDS011;6489;48.508;9.206;2023-02-28T02:10:39;16.60;;;3.07;;
12844;SDS011;6489;48.508;9.206;2023-02-28T02:17:41;19.90;;;3.67;;
12844;SDS011;6489;48.508;9.206;2023-02-28T02:25:04;14.03;;;2.80;;
12844;SDS011;6489;48.508;9.206;2023-02-28T02:32:28;32.50;;;4.77;;
12844;SDS011;6489;48.508;9.206;2023-02-28T02:36:11;10.33;;;2.70;;
12844;SDS011;6489;48.508;9.206;2023-02-28T02:39:36;12.67;;;2.97;;
12844;SDS011;6489;48.508;9.206;2023-02-28T02:43:06;14.40;;;3.07;;
12844;SDS011;6489;48.508;9.206;2023-02-28T02:46:31;19.20;;;3.37;;
12844;SDS011;6489;48.508;9.206;2023-02-28T02:49:55;37.97;;;4.97;;
12844;SDS011;6489;48.508;9.206;2023-02-28T02:53:21;18.23;;;3.47;;
12844;SDS011;6489;48.508;9.206;2023-02-28T02:56:46;26.77;;;4.47;;
12844;SDS011;6489;48.508;9.206;2023-02-28T03:00:10;15.00;;;3.03;;
12844;SDS011;6489;48.508;9.206;2023-02-28T03:03:33;21.73;;;3.73;;
12844;SDS011;6489;48.508;9.206;2023-02-28T03:06:56;16.20;;;3.13;;
12844;SDS011;6489;48.508;9.206;2023-02-28T03:10:30;16.17;;;3.00;;
12844;SDS011;6489;48.508;9.206;2023-02-28T03:14:02;31.17;;;4.63;;
12844;SDS011;6489;48.508;9.206;2023-02-28T03:17:32;25.70;;;4.13;;
12844;SDS011;6489;48.508;9.206;2023-02-28T03:20:59;11.93;;;2.50;;
12844;SDS011;6489;48.508;9.206;2023-02-28T03:24:31;8.63;;;2.40;;
12844;SDS011;6489;48.508;9.206;2023-02-28T03:27:59;19.33;;;3.60;;
12844;SDS011;6489;48.508;9.206;2023-02-28T03:31:26;16.57;;;3.10;;
12844;SDS011;6489;48.508;9.206;2023-02-28T03:34:53;19.67;;;3.47;;
12844;SDS011;6489;48.508;9.206;2023-02-28T03:38:19;16.07;;;3.00;;
12844;SDS011;6489;48.508;9.206;2023-02-28T03:41:46;22.43;;;3.93;;
12844;SDS011;6489;48.508;9.206;2023-02-28T03:45:15;15.17;;;2.87;;
12844;SDS011;6489;48.508;9.206;2023-02-28T03:48:39;10.67;;;2.70;;
12844;SDS011;6489;48.508;9.206;2023-02-28T03:52:03;11.37;;;2.67;;
12844;SDS011;6489;48.508;9.206;2023-02-28T03:55:28;29.43;;;4.47;;
12844;SDS011;6489;48.508;9.206;2023-02-28T03:58:54;23.33;;;3.77;;
12844;SDS011;6489;48.508;9.206;2023-02-28T04:02:23;22.37;;;3.67;;
12844;SDS011;6489;48.508;9.206;2023-02-28T04:05:46;24.40;;;4.20;;
12844;SDS011;6489;48.508;9.206;2023-02-28T04:09:11;18.20;;;3.27;;
12844;SDS011;6489;48.508;9.206;2023-02-28T04:12:35;26.00;;;4.03;;
12844;SDS011;6489;48.508;9.206;2023-02-28T04:15:58;27.53;;;4.17;;
12844;SDS011;6489;48.508;9.206;2023-02-28T04:19:22;13.67;;;2.83;;
12844;SDS011;6489;48.508;9.206;2023-02-28T04:22:44;13.57;;;2.83;;
12844;SDS011;6489;48.508;9.206;2023-02-28T04:26:07;16.87;;;3.23;;
12844;SDS011;6489;48.508;9.206;2023-02-28T04:29:30;27.53;;;4.17;;
12844;SDS011;6489;48.508;9.206;2023-02-28T04:32:53;19.17;;;3.57;;
12844;SDS011;6489;48.508;9.206;2023-02-28T04:36:17;29.87;;;4.60;;
12844;SDS011;6489;48.508;9.206;2023-02-28T04:39:40;17.47;;;3.30;;
12844;SDS011;6489;48.508;9.206;2023-02-28T04:43:03;24.90;;;4.13;;
12844;SDS011;6489;48.508;9.206;2023-02-28T04:46:26;17.00;;;3.30;;
12844;SDS011;6489;48.508;9.206;2023-02-28T04:49:48;13.30;;;3.03;;
12844;SDS011;6489;48.508;9.206;2023-02-28T04:53:13;18.87;;;3.53;;
12844;SDS011;6489;48.508;9.206;2023-02-28T04:56:35;19.00;;;3.67;;
12844;SDS011;6489;48.508;9.206;2023-02-28T04:59:58;24.17;;;3.93;;
12844;SDS011;6489;48.508;9.206;2023-02-28T05:03:22;22.13;;;3.37;;
12844;SDS011;6489;48.508;9.206;2023-02-28T05:06:44;50.23;;;6.60;;
12844;SDS011;6489;48.508;9.206;2023-02-28T05:10:09;17.27;;;3.30;;
12844;SDS011;6489;48.508;9.206;2023-02-28T05:13:33;15.03;;;3.07;;
12844;SDS011;6489;48.508;9.206;2023-02-28T05:16:56;13.20;;;3.00;;
12844;SDS011;6489;48.508;9.206;2023-02-28T05:20:18;14.33;;;3.00;;
12844;SDS011;6489;48.508;9.206;2023-02-28T05:23:41;25.33;;;4.17;;
12844;SDS011;6489;48.508;9.206;2023-02-28T05:27:05;20.00;;;3.70;;
12844;SDS011;6489;48.508;9.206;2023-02-28T05:30:27;13.00;;;2.87;;
12844;SDS011;6489;48.508;9.206;2023-02-28T05:33:50;15.17;;;3.10;;
12844;SDS011;6489;48.508;9.206;2023-02-28T05:37:13;17.13;;;3.23;;
12844;SDS011;6489;48.508;9.206;2023-02-28T05:40:37;13.63;;;3.13;;
12844;SDS011;6489;48.508;9.206;2023-02-28T05:44:02;32.43;;;4.87;;
12844;SDS011;6489;48.508;9.206;2023-02-28T05:47:24;29.07;;;4.43;;
12844;SDS011;6489;48.508;9.206;2023-02-28T05:50:46;32.63;;;4.90;;
12844;SDS011;6489;48.508;9.206;2023-02-28T05:54:09;23.77;;;4.13;;
12844;SDS011;6489;48.508;9.206;2023-02-28T05:57:31;24.73;;;4.03;;
12844;SDS011;6489;48.508;9.206;2023-02-28T06:00:56;28.03;;;4.53;;
12844;SDS011;6489;48.508;9.206;2023-02-28T06:04:19;33.93;;;5.10;;
12844;SDS011;6489;48.508;9.206;2023-02-28T06:07:42;15.53;;;3.30;;
12844;SDS011;6489;48.508;9.206;2023-02-28T06:11:05;29.40;;;4.63;;
12844;SDS011;6489;48.508;9.206;2023-02-28T06:14:28;31.50;;;4.73;;
12844;SDS011;6489;48.508;9.206;2023-02-28T06:17:53;32.77;;;5.17;;
12844;SDS011;6489;48.508;9.206;2023-02-28T06:21:16;14.17;;;3.07;;
12844;SDS011;6489;48.508;9.206;2023-02-28T06:24:39;24.97;;;4.13;;
12844;SDS011;6489;48.508;9.206;2023-02-28T06:28:01;12.93;;;3.00;;
12844;SDS011;6489;48.508;9.206;2023-02-28T06:31:24;12.67;;;3.13;;
12844;SDS011;6489;48.508;9.206;2023-02-28T06:34:51;27.47;;;4.60;;
12844;SDS011;6489;48.508;9.206;2023-02-28T06:38:14;17.13;;;3.40;;
12844;SDS011;6489;48.508;9.206;2023-02-28T06:41:38;12.53;;;2.80;;
12844;SDS011;6489;48.508;9.206;2023-02-28T06:45:01;18.87;;;3.70;;
12844;SDS011;6489;48.508;9.206;2023-02-28T06:48:29;22.50;;;4.07;;
12844;SDS011;6489;48.508;9.206;2023-02-28T06:51:55;11.07;;;2.73;;
12844;SDS011;6489;48.508;9.206;2023-02-28T06:55:19;22.00;;;3.73;;
12844;SDS011;6489;48.508;9.206;2023-02-28T06:58:41;34.30;;;5.03;;
12844;SDS011;6489;48.508;9.206;2023-02-28T07:02:04;18.00;;;3.40;;
12844;SDS011;6489;48.508;9.206;2023-02-28T07:05:27;34.70;;;5.33;;
12844;SDS011;6489;48.508;9.206;2023-02-28T07:08:52;19.80;;;4.00;;
12844;SDS011;6489;48.508;9.206;2023-02-28T07:12:14;44.03;;;6.23;;
12844;SDS011;6489;48.508;9.206;2023-02-28T07:15:37;91.40;;;10.90;;
12844;SDS011;6489;48.508;9.206;2023-02-28T07:18:59;53.70;;;7.37;;
12844;SDS011;6489;48.508;9.206;2023-02-28T07:22:22;47.63;;;6.53;;
12844;SDS011;6489;48.508;9.206;2023-02-28T07:25:46;40.87;;;5.57;;
12844;SDS011;6489;48.508;9.206;2023-02-28T07:29:09;42.40;;;6.10;;
12844;SDS011;6489;48.508;9.206;2023-02-28T07:32:31;16.70;;;3.50;;
12844;SDS011;6489;48.508;9.206;2023-02-28T07:36:00;66.30;;;8.93;;
12844;SDS011;6489;48.508;9.206;2023-02-28T07:39:22;32.13;;;5.27;;
12844;SDS011;6489;48.508;9.206;2023-02-28T07:42:46;30.50;;;6.17;;
12844;SDS011;6489;48.508;9.206;2023-02-28T07:46:09;40.43;;;7.67;;
12844;SDS011;6489;48.508;9.206;2023-02-28T07:49:32;23.93;;;5.40;;
12844;SDS011;6489;48.508;9.206;2023-02-28T07:52:54;22.50;;;5.13;;
12844;SDS011;6489;48.508;9.206;2023-02-28T07:56:17;20.67;;;4.90;;
12844;SDS011;6489;48.508;9.206;2023-02-28T07:59:41;13.93;;;3.90;;
12844;SDS011;6489;48.508;9.206;2023-02-28T08:03:04;19.17;;;4.43;;
12844;SDS011;6489;48.508;9.206;2023-02-28T08:06:28;21.17;;;4.87;;
12844;SDS011;6489;48.508;9.206;2023-02-28T08:09:54;15.83;;;3.97;;
12844;SDS011;6489;48.508;9.206;2023-02-28T08:13:16;23.93;;;5.00;;
12844;SDS011;6489;48.508;9.206;2023-02-28T08:16:40;14.43;;;3.73;;
12844;SDS011;6489;48.508;9.206;2023-02-28T08:20:04;26.00;;;5.70;;
12844;SDS011;6489;48.508;9.206;2023-02-28T08:23:27;20.53;;;4.90;;
12844;SDS011;6489;48.508;9.206;2023-02-28T08:26:50;18.17;;;4.00;;
12844;SDS011;6489;48.508;9.206;2023-02-28T08:30:15;14.60;;;4.23;;
12844;SDS011;6489;48.508;9.206;2023-02-28T08:33:39;24.00;;;4.87;;
12844;SDS011;6489;48.508;9.206;2023-02-28T08:37:02;22.30;;;4.50;;
12844;SDS011;6489;48.508;9.206;2023-02-28T08:40:27;26.30;;;5.00;;
12844;SDS011;6489;48.508;9.206;2023-02-28T08:43:51;18.93;;;4.17;;
12844;SDS011;6489;48.508;9.206;2023-02-28T08:47:17;15.57;;;4.00;;
12844;SDS011;6489;48.508;9.206;2023-02-28T08:50:41;17.47;;;4.10;;
12844;SDS011;6489;48.508;9.206;2023-02-28T08:54:03;15.70;;;3.90;;
12844;SDS011;6489;48.508;9.206;2023-02-28T08:57:26;28.43;;;4.77;;
12844;SDS011;6489;48.508;9.206;2023-02-28T09:00:48;13.43;;;4.03;;
12844;SDS011;6489;48.508;9.206;2023-02-28T09:04:14;19.43;;;4.17;;
12844;SDS011;6489;48.508;9.206;2023-02-28T09:07:38;18.90;;;4.13;;
12844;SDS011;6489;48.508;9.206;2023-02-28T09:11:02;20.37;;;4.43;;
12844;SDS011;6489;48.508;9.206;2023-02-28T09:14:24;10.13;;;3.30;;
12844;SDS011;6489;48.508;9.206;2023-02-28T09:17:47;24.53;;;4.80;;
12844;SDS011;6489;48.508;9.206;2023-02-28T09:21:12;17.30;;;3.83;;
12844;SDS011;6489;48.508;9.206;2023-02-28T09:24:40;12.40;;;3.13;;
12844;SDS011;6489;48.508;9.206;2023-02-28T09:28:02;28.90;;;4.87;;
12844;SDS011;6489;48.508;9.206;2023-02-28T09:31:27;23.33;;;4.53;;
12844;SDS011;6489;48.508;9.206;2023-02-28T09:34:53;15.67;;;3.83;;
12844;SDS011;6489;48.508;9.206;2023-02-28T09:38:16;24.17;;;4.90;;
12844;SDS011;6489;48.508;9.206;2023-02-28T09:41:41;34.97;;;6.00;;
12844;SDS011;6489;48.508;9.206;2023-02-28T09:45:12;17.40;;;3.90;;
12844;SDS011;6489;48.508;9.206;2023-02-28T09:48:39;29.83;;;5.60;;
12844;SDS011;6489;48.508;9.206;2023-02-28T09:52:05;11.53;;;3.60;;
12844;SDS011;6489;48.508;9.206;2023-02-28T09:55:30;23.80;;;4.53;;
12844;SDS011;6489;48.508;9.206;2023-02-28T09:58:57;30.47;;;5.43;;
12844;SDS011;6489;48.508;9.206;2023-02-28T10:02:27;33.87;;;5.67;;
12844;SDS011;6489;48.508;9.206;2023-02-28T10:05:59;26.37;;;4.90;;
12844;SDS011;6489;48.508;9.206;2023-02-28T10:09:24;23.97;;;4.97;;
12844;SDS011;6489;48.508;9.206;2023-02-28T10:12:52;38.40;;;6.20;;
12844;SDS011;6489;48.508;9.206;2023-02-28T10:16:24;20.23;;;4.20;;
12844;SDS011;6489;48.508;9.206;2023-02-28T10:19:50;8.10;;;3.27;;
12844;SDS011;6489;48.508;9.206;2023-02-28T10:23:19;20.87;;;4.50;;
12844;SDS011;6489;48.508;9.206;2023-02-28T10:26:44;25.77;;;5.27;;
12844;SDS011;6489;48.508;9.206;2023-02-28T10:30:09;14.67;;;3.87;;
12844;SDS011;6489;48.508;9.206;2023-02-28T10:33:36;24.13;;;4.97;;
12844;SDS011;6489;48.508;9.206;2023-02-28T10:37:01;15.10;;;3.67;;
12844;SDS011;6489;48.508;9.206;2023-02-28T10:40:29;21.63;;;4.57;;
12844;SDS011;6489;48.508;9.206;2023-02-28T10:47:38;20.50;;;4.30;;
12844;SDS011;6489;48.508;9.206;2023-02-28T10:51:13;20.63;;;4.63;;
12844;SDS011;6489;48.508;9.206;2023-02-28T10:54:36;19.97;;;4.17;;
12844;SDS011;6489;48.508;9.206;2023-02-28T10:57:59;18.67;;;4.47;;
12844;SDS011;6489;48.508;9.206;2023-02-28T11:01:25;13.83;;;3.83;;
12844;SDS011;6489;48.508;9.206;2023-02-28T11:04:55;12.63;;;3.70;;
12844;SDS011;6489;48.508;9.206;2023-02-28T11:08:22;14.63;;;3.97;;
12844;SDS011;6489;48.508;9.206;2023-02-28T11:11:46;16.37;;;4.17;;
12844;SDS011;6489;48.508;9.206;2023-02-28T11:15:19;32.13;;;6.43;;
12844;SDS011;6489;48.508;9.206;2023-02-28T11:18:47;30.87;;;6.40;;
12844;SDS011;6489;48.508;9.206;2023-02-28T11:22:11;25.33;;;6.47;;
12844;SDS011;6489;48.508;9.206;2023-02-28T11:25:40;21.70;;;5.60;;
12844;SDS011;6489;48.508;9.206;2023-02-28T11:29:11;39.27;;;6.87;;
12844;SDS011;6489;48.508;9.206;2023-02-28T11:32:39;38.97;;;6.70;;
12844;SDS011;6489;48.508;9.206;2023-02-28T11:36:11;23.27;;;5.03;;
12844;SDS011;6489;48.508;9.206;2023-02-28T11:39:34;24.30;;;5.10;;
12844;SDS011;6489;48.508;9.206;2023-02-28T11:43:03;26.63;;;5.83;;
12844;SDS011;6489;48.508;9.206;2023-02-28T11:46:30;38.17;;;6.97;;
12844;SDS011;6489;48.508;9.206;2023-02-28T11:49:59;24.80;;;5.60;;
12844;SDS011;6489;48.508;9.206;2023-02-28T11:53:43;26.10;;;5.43;;
12844;SDS011;6489;48.508;9.206;2023-02-28T11:57:14;52.10;;;7.97;;
12844;SDS011;6489;48.508;9.206;2023-02-28T12:00:54;30.33;;;5.83;;
12844;SDS011;6489;48.508;9.206;2023-02-28T12:04:23;20.83;;;5.03;;
12844;SDS011;6489;48.508;9.206;2023-02-28T12:07:49;74.97;;;10.27;;
12844;SDS011;6489;48.508;9.206;2023-02-28T12:19:15;46.03;;;8.13;;
12844;SDS011;6489;48.508;9.206;2023-02-28T12:22:40;25.87;;;6.40;;
12844;SDS011;6489;48.508;9.206;2023-02-28T12:26:08;26.70;;;5.67;;
12844;SDS011;6489;48.508;9.206;2023-02-28T12:29:34;30.47;;;6.53;;
12844;SDS011;6489;48.508;9.206;2023-02-28T12:33:01;47.77;;;8.23;;
12844;SDS011;6489;48.508;9.206;2023-02-28T12:36:26;35.00;;;7.60;;
12844;SDS011;6489;48.508;9.206;2023-02-28T12:39:50;33.23;;;6.60;;
12844;SDS011;6489;48.508;9.206;2023-02-28T12:43:17;31.80;;;6.53;;
12844;SDS011;6489;48.508;9.206;2023-02-28T12:46:44;27.77;;;6.50;;
12844;SDS011;6489;48.508;9.206;2023-02-28T12:50:10;24.37;;;6.47;;
12844;SDS011;6489;48.508;9.206;2023-02-28T12:53:38;35.90;;;7.00;;
12844;SDS011;6489;48.508;9.206;2023-02-28T12:57:06;16.33;;;5.60;;
12844;SDS011;6489;48.508;9.206;2023-02-28T13:00:38;65.97;;;10.20;;
12844;SDS011;6489;48.508;9.206;2023-02-28T13:07:57;31.33;;;7.17;;
12844;SDS011;6489;48.508;9.206;2023-02-28T13:11:26;25.10;;;6.30;;
12844;SDS011;6489;48.508;9.206;2023-02-28T13:15:01;24.80;;;6.57;;
12844;SDS011;6489;48.508;9.206;2023-02-28T13:18:29;36.23;;;6.83;;
12844;SDS011;6489;48.508;9.206;2023-02-28T13:21:54;33.13;;;7.20;;
12844;SDS011;6489;48.508;9.206;2023-02-28T13:29:25;17.47;;;5.57;;
12844;SDS011;6489;48.508;9.206;2023-02-28T13:33:04;40.37;;;7.40;;
12844;SDS011;6489;48.508;9.206;2023-02-28T13:36:39;24.23;;;5.70;;
12844;SDS011;6489;48.508;9.206;2023-02-28T13:40:26;28.03;;;6.27;;
12844;SDS011;6489;48.508;9.206;2023-02-28T13:44:03;56.73;;;8.83;;
12844;SDS011;6489;48.508;9.206;2023-02-28T13:47:30;41.90;;;7.70;;
12844;SDS011;6489;48.508;9.206;2023-02-28T13:50:57;9.57;;;4.53;;
12844;SDS011;6489;48.508;9.206;2023-02-28T13:54:24;47.50;;;9.07;;
12844;SDS011;6489;48.508;9.206;2023-02-28T13:58:03;25.97;;;6.03;;
12844;SDS011;6489;48.508;9.206;2023-02-28T14:05:14;31.80;;;6.67;;
12844;SDS011;6489;48.508;9.206;2023-02-28T14:08:51;22.27;;;5.33;;
12844;SDS011;6489;48.508;9.206;2023-02-28T14:15:56;41.03;;;7.13;;
12844;SDS011;6489;48.508;9.206;2023-02-28T14:19:21;46.43;;;7.77;;
12844;SDS011;6489;48.508;9.206;2023-02-28T14:22:49;28.23;;;6.43;;
12844;SDS011;6489;48.508;9.206;2023-02-28T14:26:19;27.87;;;5.87;;
12844;SDS011;6489;48.508;9.206;2023-02-28T14:33:57;22.10;;;5.77;;
12844;SDS011;6489;48.508;9.206;2023-02-28T14:37:23;43.37;;;7.70;;
12844;SDS011;6489;48.508;9.206;2023-02-28T14:41:01;33.23;;;6.37;;
12844;SDS011;6489;48.508;9.206;2023-02-28T14:44:26;43.90;;;7.50;;
12844;SDS011;6489;48.508;9.206;2023-02-28T14:47:50;37.90;;;7.37;;
12844;SDS011;6489;48.508;9.206;2023-02-28T14:51:13;24.57;;;5.40;;
12844;SDS011;6489;48.508;9.206;2023-02-28T14:54:41;31.13;;;6.47;;
12844;SDS011;6489;48.508;9.206;2023-02-28T14:58:06;39.73;;;6.77;;
12844;SDS011;6489;48.508;9.206;2023-02-28T15:01:29;26.73;;;5.40;;
12844;SDS011;6489;48.508;9.206;2023-02-28T15:04:54;36.73;;;6.90;;
12844;SDS011;6489;48.508;9.206;2023-02-28T15:08:17;33.67;;;6.53;;
12844;SDS011;6489;48.508;9.206;2023-02-28T15:11:41;17.47;;;4.43;;
12844;SDS011;6489;48.508;9.206;2023-02-28T15:15:05;24.57;;;5.33;;
12844;SDS011;6489;48.508;9.206;2023-02-28T15:18:30;26.90;;;5.43;;
12844;SDS011;6489;48.508;9.206;2023-02-28T15:21:59;28.20;;;5.60;;
12844;SDS011;6489;48.508;9.206;2023-02-28T15:25:24;20.50;;;5.13;;
12844;SDS011;6489;48.508;9.206;2023-02-28T15:28:48;17.00;;;4.80;;
12844;SDS011;6489;48.508;9.206;2023-02-28T15:32:20;16.63;;;4.60;;
12844;SDS011;6489;48.508;9.206;2023-02-28T15:35:43;34.60;;;6.33;;
12844;SDS011;6489;48.508;9.206;2023-02-28T15:39:17;16.87;;;4.67;;
12844;SDS011;6489;48.508;9.206;2023-02-28T15:42:41;18.83;;;5.23;;
12844;SDS011;6489;48.508;9.206;2023-02-28T15:46:05;50.40;;;7.80;;
12844;SDS011;6489;48.508;9.206;2023-02-28T15:49:32;21.30;;;5.07;;
12844;SDS011;6489;48.508;9.206;2023-02-28T15:52:56;34.50;;;6.47;;
12844;SDS011;6489;48.508;9.206;2023-02-28T15:56:22;48.80;;;7.47;;
12844;SDS011;6489;48.508;9.206;2023-02-28T15:59:49;31.03;;;6.03;;
12844;SDS011;6489;48.508;9.206;2023-02-28T16:03:33;45.20;;;7.80;;
12844;SDS011;6489;48.508;9.206;2023-02-28T16:07:04;31.27;;;6.00;;
12844;SDS011;6489;48.508;9.206;2023-02-28T16:10:27;36.37;;;6.70;;
12844;SDS011;6489;48.508;9.206;2023-02-28T16:13:51;24.20;;;5.27;;
12844;SDS011;6489;48.508;9.206;2023-02-28T16:17:16;49.03;;;8.03;;
12844;SDS011;6489;48.508;9.206;2023-02-28T16:20:43;33.70;;;7.20;;
12844;SDS011;6489;48.508;9.206;2023-02-28T16:24:07;31.43;;;5.97;;
12844;SDS011;6489;48.508;9.206;2023-02-28T16:27:30;36.13;;;6.53;;
12844;SDS011;6489;48.508;9.206;2023-02-28T16:30:53;55.03;;;10.97;;
12844;SDS011;6489;48.508;9.206;2023-02-28T16:34:15;32.27;;;8.50;;
12844;SDS011;6489;48.508;9.206;2023-02-28T16:37:37;28.53;;;6.57;;
12844;SDS011;6489;48.508;9.206;2023-02-28T16:41:01;45.20;;;8.80;;
12844;SDS011;6489;48.508;9.206;2023-02-28T16:44:26;56.47;;;11.13;;
12844;SDS011;6489;48.508;9.206;2023-02-28T16:47:50;38.67;;;9.20;;
12844;SDS011;6489;48.508;9.206;2023-02-28T16:51:13;47.90;;;10.60;;
12844;SDS011;6489;48.508;9.206;2023-02-28T16:54:36;34.83;;;8.50;;
12844;SDS011;6489;48.508;9.206;2023-02-28T16:58:00;55.10;;;10.87;;
12844;SDS011;6489;48.508;9.206;2023-02-28T17:01:23;47.57;;;9.87;;
12844;SDS011;6489;48.508;9.206;2023-02-28T17:04:47;24.80;;;8.13;;
12844;SDS011;6489;48.508;9.206;2023-02-28T17:08:10;33.33;;;8.47;;
12844;SDS011;6489;48.508;9.206;2023-02-28T17:11:33;41.93;;;9.70;;
12844;SDS011;6489;48.508;9.206;2023-02-28T17:14:57;42.60;;;10.03;;
12844;SDS011;6489;48.508;9.206;2023-02-28T17:18:19;35.50;;;8.90;;
12844;SDS011;6489;48.508;9.206;2023-02-28T17:21:43;41.60;;;9.40;;
12844;SDS011;6489;48.508;9.206;2023-02-28T17:25:06;37.63;;;9.27;;
12844;SDS011;6489;48.508;9.206;2023-02-28T17:28:29;30.93;;;8.37;;
12844;SDS011;6489;48.508;9.206;2023-02-28T17:31:53;26.37;;;8.37;;
12844;SDS011;6489;48.508;9.206;2023-02-28T17:35:15;57.13;;;11.33;;
12844;SDS011;6489;48.508;9.206;2023-02-28T17:38:38;34.97;;;8.53;;
12844;SDS011;6489;48.508;9.206;2023-02-28T17:42:00;33.57;;;8.20;;
12844;SDS011;6489;48.508;9.206;2023-02-28T17:45:23;21.53;;;7.30;;
12844;SDS011;6489;48.508;9.206;2023-02-28T17:48:47;44.67;;;9.37;;
12844;SDS011;6489;48.508;9.206;2023-02-28T17:52:09;45.13;;;11.10;;
12844;SDS011;6489;48.508;9.206;2023-02-28T17:55:32;18.57;;;7.80;;
12844;SDS011;6489;48.508;9.206;2023-02-28T17:58:55;21.33;;;7.43;;
12844;SDS011;6489;48.508;9.206;2023-02-28T18:02:17;32.70;;;9.23;;
12844;SDS011;6489;48.508;9.206;2023-02-28T18:05:41;41.87;;;10.20;;
12844;SDS011;6489;48.508;9.206;2023-02-28T18:09:03;25.13;;;9.10;;
12844;SDS011;6489;48.508;9.206;2023-02-28T18:12:26;45.80;;;10.60;;
12844;SDS011;6489;48.508;9.206;2023-02-28T18:15:48;26.07;;;8.77;;
12844;SDS011;6489;48.508;9.206;2023-02-28T18:19:11;46.43;;;9.73;;
12844;SDS011;6489;48.508;9.206;2023-02-28T18:22:38;26.40;;;7.67;;
12844;SDS011;6489;48.508;9.206;2023-02-28T18:26:01;47.97;;;10.00;;
12844;SDS011;6489;48.508;9.206;2023-02-28T18:29:23;38.80;;;9.03;;
12844;SDS011;6489;48.508;9.206;2023-02-28T18:32:46;32.93;;;8.37;;
12844;SDS011;6489;48.508;9.206;2023-02-28T18:36:09;34.33;;;10.77;;
12844;SDS011;6489;48.508;9.206;2023-02-28T18:39:33;18.30;;;8.00;;
12844;SDS011;6489;48.508;9.206;2023-02-28T18:42:55;30.50;;;8.80;;
12844;SDS011;6489;48.508;9.206;2023-02-28T18:46:18;38.70;;;9.10;;
12844;SDS011;6489;48.508;9.206;2023-02-28T18:49:40;21.40;;;7.00;;
12844;SDS011;6489;48.508;9.206;2023-02-28T18:53:03;53.93;;;10.50;;
12844;SDS011;6489;48.508;9.206;2023-02-28T18:56:27;28.60;;;7.83;;
12844;SDS011;6489;48.508;9.206;2023-02-28T18:59:49;22.37;;;7.70;;
12844;SDS011;6489;48.508;9.206;2023-02-28T19:03:12;19.43;;;7.07;;
12844;SDS011;6489;48.508;9.206;2023-02-28T19:06:34;34.20;;;8.50;;
12844;SDS011;6489;48.508;9.206;2023-02-28T19:09:57;31.30;;;7.87;;
12844;SDS011;6489;48.508;9.206;2023-02-28T19:13:21;29.70;;;7.80;;
12844;SDS011;6489;48.508;9.206;2023-02-28T19:16:43;23.77;;;7.60;;
12844;SDS011;6489;48.508;9.206;2023-02-28T19:20:06;28.77;;;8.00;;
12844;SDS011;6489;48.508;9.206;2023-02-28T19:23:30;42.77;;;10.53;;
12844;SDS011;6489;48.508;9.206;2023-02-28T19:26:52;28.10;;;9.90;;
12844;SDS011;6489;48.508;9.206;2023-02-28T19:30:16;30.53;;;10.03;;
12844;SDS011;6489;48.508;9.206;2023-02-28T19:33:39;36.00;;;9.67;;
12844;SDS011;6489;48.508;9.206;2023-02-28T19:37:02;28.43;;;8.23;;
12844;SDS011;6489;48.508;9.206;2023-02-28T19:40:24;28.53;;;7.97;;
12844;SDS011;6489;48.508;9.206;2023-02-28T19:43:46;21.40;;;7.63;;
12844;SDS011;6489;48.508;9.206;2023-02-28T19:47:11;21.50;;;7.70;;
12844;SDS011;6489;48.508;9.206;2023-02-28T19:50:34;37.63;;;9.07;;
12844;SDS011;6489;48.508;9.206;2023-02-28T19:53:57;35.87;;;8.83;;
12844;SDS011;6489;48.508;9.206;2023-02-28T19:57:20;18.87;;;6.63;;
12844;SDS011;6489;48.508;9.206;2023-02-28T20:00:42;18.83;;;6.87;;
12844;SDS011;6489;48.508;9.206;2023-02-28T20:04:06;29.43;;;8.03;;
12844;SDS011;6489;48.508;9.206;2023-02-28T20:07:28;38.03;;;8.70;;
12844;SDS011;6489;48.508;9.206;2023-02-28T20:10:51;51.87;;;9.93;;
12844;SDS011;6489;48.508;9.206;2023-02-28T20:14:13;34.00;;;8.53;;
12844;SDS011;6489;48.508;9.206;2023-02-28T20:17:36;18.73;;;6.63;;
12844;SDS011;6489;48.508;9.206;2023-02-28T20:21:02;29.70;;;7.67;;
12844;SDS011;6489;48.508;9.206;2023-02-28T20:24:24;25.83;;;6.93;;
12844;SDS011;6489;48.508;9.206;2023-02-28T20:27:47;19.00;;;6.60;;
12844;SDS011;6489;48.508;9.206;2023-02-28T20:31:09;21.53;;;7.00;;
12844;SDS011;6489;48.508;9.206;2023-02-28T20:34:32;28.60;;;7.40;;
12844;SDS011;6489;48.508;9.206;2023-02-28T20:37:56;39.27;;;9.03;;
12844;SDS011;6489;48.508;9.206;2023-02-28T20:41:19;19.37;;;6.33;;
12844;SDS011;6489;48.508;9.206;2023-02-28T20:44:41;18.90;;;6.13;;
12844;SDS011;6489;48.508;9.206;2023-02-28T20:48:03;28.23;;;7.53;;
12844;SDS011;6489;48.508;9.206;2023-02-28T20:51:26;19.87;;;6.77;;
12844;SDS011;6489;48.508;9.206;2023-02-28T20:54:50;20.97;;;6.97;;
12844;SDS011;6489;48.508;9.206;2023-02-28T20:58:12;31.43;;;8.33;;
12844;SDS011;6489;48.508;9.206;2023-02-28T21:01:34;31.43;;;8.40;;
12844;SDS011;6489;48.508;9.206;2023-02-28T21:04:57;27.33;;;7.70;;
12844;SDS011;6489;48.508;9.206;2023-02-28T21:08:19;41.53;;;8.90;;
12844;SDS011;6489;48.508;9.206;2023-02-28T21:11:43;14.43;;;6.17;;
12844;SDS011;6489;48.508;9.206;2023-02-28T21:15:06;16.83;;;6.13;;
12844;SDS011;6489;48.508;9.206;2023-02-28T21:22:27;33.23;;;7.97;;